Time;durP1;ratioP1;P1;durP2;ratioP2;P2;SDS_P1;SDS_P2;PMS_P1;PMS_P2;Temp;Humidity;BMP_temperature;BMP_pressure;BME280_temperature;BME280_humidity;BME280_pressure;Samples;Min_cycle;Max_cycle;Signal;HPM_P1;HPM_P2
2023/07/08 00:00:30;;;;;;;;;;;;;;;18.70;97.05;95517.97;5076466;28;1047;-54
2023/07/08 00:02:56;;;;;;;;;;;;;;;18.77;96.44;95516.13;5076323;28;1128;-53
2023/07/08 00:05:25;;;;;;;;;;;;;;;18.67;95.83;95521.94;5076098;28;1239;-53
2023/07/08 00:07:51;;;;;;;;;;;;;;;18.61;96.01;95514.63;5076096;28;1251;-53
2023/07/08 00:10:21;;;;;;;;;;;;;;;18.67;96.05;95510.25;5076309;28;1023;-54
2023/07/08 00:12:49;;;;;;;;;;;;;;;18.55;95.54;95512.69;5076103;28;1057;-54
2023/07/08 00:15:15;;;;;;;;;;;;;;;18.45;96.98;95510.38;5075945;28;1061;-53
2023/07/08 00:17:42;;;;;;;;;;;;;;;18.34;96.87;95502.81;5075925;28;1906;-54
2023/07/08 00:20:17;;;;;;;;;;;;;;;18.30;97.03;95502.38;5075935;28;1069;-53
2023/07/08 00:22:46;;;;;;;;;;;;;;;18.24;97.78;95497.78;5076252;28;961;-53
2023/07/08 00:25:14;;;;;;;;;;;;;;;18.22;97.95;95502.56;5076068;28;1001;-53
2023/07/08 00:27:40;;;;;;;;;;;;;;;18.05;98.79;95504.75;5076044;28;1043;-53
2023/07/08 00:30:28;;;;;;;;;;;;;;;17.94;97.65;95508.84;5075899;28;1075;-54
2023/07/08 00:32:55;;;;;;;;;;;;;;;18.05;96.66;95493.09;5074964;28;1079;-53
2023/07/08 00:35:22;;;;;;;;;;;;;;;18.00;97.17;95496.38;5075721;28;1053;-53
2023/07/08 00:37:49;;;;;;;;;;;;;;;17.80;98.00;95496.25;5075806;28;2051;-53
2023/07/08 00:40:17;;;;;;;;;;;;;;;17.78;97.53;95508.31;5075604;28;1036;-54
2023/07/08 00:42:44;;;;;;;;;;;;;;;17.35;98.98;95506.50;5075625;28;1123;-54
2023/07/08 00:45:28;;;;;;;;;;;;;;;17.07;99.80;95501.84;5075765;28;1016;-53
2023/07/08 00:47:56;;;;;;;;;;;;;;;17.36;99.71;95510.88;5075760;28;1016;-53
2023/07/08 00:50:22;;;;;;;;;;;;;;;17.54;99.27;95508.50;5075204;28;1146;-53
2023/07/08 00:52:48;;;;;;;;;;;;;;;17.62;99.20;95510.25;5075578;28;1048;-53
2023/07/08 00:55:14;;;;;;;;;;;;;;;17.65;100.00;95515.25;5075334;28;1120;-53
2023/07/08 00:57:43;;;;;;;;;;;;;;;17.70;100.00;95512.81;5074137;28;1905;-52
2023/07/08 01:00:15;;;;;;;;;;;;;;;17.52;100.00;95516.00;5075508;28;1023;-53
2023/07/08 01:02:47;;;;;;;;;;;;;;;17.48;100.00;95505.78;5075495;28;961;-53
2023/07/08 01:05:16;;;;;;;;;;;;;;;17.62;98.64;95504.84;5075271;28;1299;-53
2023/07/08 01:07:44;;;;;;;;;;;;;;;17.59;99.30;95509.81;5075119;28;1184;-52
2023/07/08 01:10:12;;;;;;;;;;;;;;;17.46;99.98;95505.13;5074984;28;997;-53
2023/07/08 01:12:42;;;;;;;;;;;;;;;17.44;99.57;95510.72;5075328;28;1036;-53
2023/07/08 01:15:09;;;;;;;;;;;;;;;17.17;100.00;95513.19;5075124;28;1028;-53
2023/07/08 01:17:35;;;;;;;;;;;;;;;17.15;100.00;95512.56;5074992;28;1903;-52
2023/07/08 01:20:06;;;;;;;;;;;;;;;17.35;100.00;95509.19;5075020;28;1077;-53
2023/07/08 01:22:34;;;;;;;;;;;;;;;17.55;100.00;95509.38;5074915;28;1036;-53
2023/07/08 01:25:03;;;;;;;;;;;;;;;17.69;99.08;95513.00;5074835;28;1104;-53
2023/07/08 01:27:30;;;;;;;;;;;;;;;17.51;98.26;95518.88;5074997;28;1187;-53
2023/07/08 01:29:56;;;;;;;;;;;;;;;17.13;99.73;95522.72;5074679;28;1130;-53
2023/07/08 01:32:23;;;;;;;;;;;;;;;16.92;99.14;95520.00;5074728;28;1005;-53
2023/07/08 01:34:59;;;;;;;;;;;;;;;16.82;100.00;95517.59;5074625;28;1037;-53
2023/07/08 01:37:30;;;;;;;;;;;;;;;16.71;100.00;95509.97;5074500;28;1991;-53
2023/07/08 01:39:57;;;;;;;;;;;;;;;16.88;100.00;95513.31;5074528;28;1038;-53
2023/07/08 01:42:23;;;;;;;;;;;;;;;17.03;100.00;95513.25;5074615;28;1003;-54
2023/07/08 01:44:49;;;;;;;;;;;;;;;17.10;100.00;95512.28;5074590;28;1039;-53
2023/07/08 01:47:17;;;;;;;;;;;;;;;17.12;100.00;95517.50;5074432;28;992;-53
2023/07/08 01:49:45;;;;;;;;;;;;;;;16.97;100.00;95514.88;5074428;28;1059;-53
2023/07/08 01:52:11;;;;;;;;;;;;;;;17.01;99.57;95513.44;5074470;28;1225;-53
2023/07/08 01:54:38;;;;;;;;;;;;;;;17.05;100.00;95513.91;5074451;28;1004;-53
2023/07/08 01:57:04;;;;;;;;;;;;;;;17.03;100.00;95510.56;5074184;28;1902;-53
2023/07/08 01:59:30;;;;;;;;;;;;;;;17.12;99.65;95499.44;5074181;28;1021;-53
2023/07/08 02:01:57;;;;;;;;;;;;;;;17.12;99.00;95499.44;5073528;28;1064;-53
2023/07/08 02:04:25;;;;;;;;;;;;;;;16.89;99.83;95501.50;5073970;28;1100;-53
2023/07/08 02:06:54;;;;;;;;;;;;;;;16.76;100.00;95489.47;5073974;28;1299;-53
2023/07/08 02:09:21;;;;;;;;;;;;;;;16.67;100.00;95495.19;5074108;28;1028;-53
2023/07/08 02:11:47;;;;;;;;;;;;;;;16.67;100.00;95497.88;5074090;28;1032;-53
2023/07/08 02:14:13;;;;;;;;;;;;;;;16.73;100.00;95497.97;5073832;28;1057;-53
2023/07/08 02:16:39;;;;;;;;;;;;;;;16.79;100.00;95502.59;5073803;28;2009;-52
2023/07/08 02:19:05;;;;;;;;;;;;;;;16.76;100.00;95507.53;5073683;28;1021;-53
2023/07/08 02:21:31;;;;;;;;;;;;;;;16.62;100.00;95505.72;5074023;28;985;-53
2023/07/08 02:23:57;;;;;;;;;;;;;;;16.88;100.00;95495.22;5073970;28;1040;-53
2023/07/08 02:26:23;;;;;;;;;;;;;;;17.11;100.00;95502.31;5073610;28;1073;-53
2023/07/08 02:28:49;;;;;;;;;;;;;;;17.23;100.00;95503.47;5073652;28;1062;-53
2023/07/08 02:31:15;;;;;;;;;;;;;;;17.20;100.00;95501.16;5073618;28;1060;-52
2023/07/08 02:33:41;;;;;;;;;;;;;;;17.18;100.00;95489.72;5073553;28;1053;-53
2023/07/08 02:36:07;;;;;;;;;;;;;;;16.94;100.00;95499.88;5073749;28;969;-53
2023/07/08 02:38:33;;;;;;;;;;;;;;;16.87;100.00;95504.38;5073709;28;1989;-53
2023/07/08 02:40:59;;;;;;;;;;;;;;;16.65;100.00;95516.97;5073944;28;1226;-53
2023/07/08 02:43:25;;;;;;;;;;;;;;;16.52;100.00;95524.91;5073382;28;1057;-53
2023/07/08 02:45:52;;;;;;;;;;;;;;;16.67;100.00;95527.59;5073501;28;1008;-53
2023/07/08 02:48:18;;;;;;;;;;;;;;;16.89;100.00;95534.72;5073256;28;1093;-53
2023/07/08 02:50:45;;;;;;;;;;;;;;;16.94;100.00;95536.84;5073244;28;1170;-53
2023/07/08 02:53:11;;;;;;;;;;;;;;;16.86;100.00;95532.41;5073484;28;1036;-53
2023/07/08 02:55:38;;;;;;;;;;;;;;;16.93;100.00;95536.00;5072165;28;1072;-53
2023/07/08 02:58:04;;;;;;;;;;;;;;;17.11;100.00;95526.63;5073323;28;1914;-53
2023/07/08 03:00:30;;;;;;;;;;;;;;;17.15;100.00;95523.38;5073271;28;1033;-52
2023/07/08 03:02:56;;;;;;;;;;;;;;;17.19;100.00;95521.13;5073262;28;1055;-53
2023/07/08 03:05:22;;;;;;;;;;;;;;;17.25;100.00;95517.63;5073039;28;1224;-53
2023/07/08 03:07:48;;;;;;;;;;;;;;;17.25;100.00;95506.00;5073137;28;1093;-52
2023/07/08 03:10:14;;;;;;;;;;;;;;;17.37;100.00;95507.13;5073236;28;1047;-53
2023/07/08 03:12:40;;;;;;;;;;;;;;;17.31;100.00;95500.63;5073311;28;1043;-53
2023/07/08 03:15:06;;;;;;;;;;;;;;;17.14;100.00;95501.94;5077293;28;1039;-53
2023/07/08 03:17:32;;;;;;;;;;;;;;;16.67;100.00;95500.59;5077142;28;1917;-53
2023/07/08 03:19:58;;;;;;;;;;;;;;;16.64;100.00;95495.56;5076933;28;1094;-53
2023/07/08 03:22:24;;;;;;;;;;;;;;;16.87;100.00;95488.16;5077202;28;981;-53
2023/07/08 03:24:50;;;;;;;;;;;;;;;17.06;100.00;95477.75;5077065;28;1037;-53
2023/07/08 03:27:16;;;;;;;;;;;;;;;17.03;100.00;95473.56;5077103;28;1044;-53
2023/07/08 03:29:42;;;;;;;;;;;;;;;17.11;100.00;95478.84;5076985;28;1064;-53
2023/07/08 03:32:10;;;;;;;;;;;;;;;16.94;100.00;95486.38;5076883;28;1139;-53
2023/07/08 03:34:36;;;;;;;;;;;;;;;16.89;100.00;95482.59;5077120;28;1055;-52
2023/07/08 03:37:02;;;;;;;;;;;;;;;16.83;100.00;95492.28;5076979;28;1909;-53
2023/07/08 03:39:28;;;;;;;;;;;;;;;16.65;100.00;95492.66;5076872;28;973;-53
2023/07/08 03:41:54;;;;;;;;;;;;;;;16.62;100.00;95497.59;5076756;28;1080;-53
2023/07/08 03:44:20;;;;;;;;;;;;;;;16.65;100.00;95498.06;5076561;28;1069;-53
2023/07/08 03:46:50;;;;;;;;;;;;;;;16.83;100.00;95497.69;5076508;28;1124;-52
2023/07/08 03:49:21;;;;;;;;;;;;;;;16.89;100.00;95505.00;5076506;28;991;-53
2023/07/08 03:51:48;;;;;;;;;;;;;;;17.01;100.00;95510.75;5076617;28;1214;-53
2023/07/08 03:54:15;;;;;;;;;;;;;;;17.09;100.00;95516.03;5076502;28;1028;-53
2023/07/08 03:56:41;;;;;;;;;;;;;;;16.96;100.00;95526.72;5075232;28;2001;-53
2023/07/08 03:59:07;;;;;;;;;;;;;;;16.88;100.00;95529.50;5076437;28;1053;-52
2023/07/08 04:01:33;;;;;;;;;;;;;;;16.97;100.00;95525.66;5076263;28;1060;-53
2023/07/08 04:03:59;;;;;;;;;;;;;;;17.09;100.00;95518.75;5076574;28;1040;-53
2023/07/08 04:06:26;;;;;;;;;;;;;;;17.22;100.00;95518.00;5076132;28;1235;-54
2023/07/08 04:08:52;;;;;;;;;;;;;;;17.36;100.00;95510.88;5076463;28;969;-54
2023/07/08 04:11:19;;;;;;;;;;;;;;;17.42;100.00;95522.78;5076179;28;1048;-53
2023/07/08 04:13:45;;;;;;;;;;;;;;;17.34;100.00;95521.88;5075035;28;980;-53
2023/07/08 04:16:16;;;;;;;;;;;;;;;17.45;100.00;95519.66;5075959;28;1027;-54
2023/07/08 04:18:42;;;;;;;;;;;;;;;17.68;100.00;95527.53;5076219;28;1905;-53
2023/07/08 04:21:08;;;;;;;;;;;;;;;18.09;100.00;95524.13;5075964;28;1096;-54
2023/07/08 04:23:34;;;;;;;;;;;;;;;18.39;100.00;95529.31;5075988;28;1040;-53
2023/07/08 04:26:00;;;;;;;;;;;;;;;18.39;100.00;95522.00;5075297;28;1043;-54
2023/07/08 04:28:26;;;;;;;;;;;;;;;18.39;100.00;95529.31;5075798;28;1081;-53
2023/07/08 04:30:52;;;;;;;;;;;;;;;18.48;100.00;95526.22;5075757;28;1041;-53
2023/07/08 04:33:18;;;;;;;;;;;;;;;18.69;96.58;95530.69;5075960;28;1037;-54
2023/07/08 04:35:45;;;;;;;;;;;;;;;18.87;98.67;95534.72;5075755;28;1049;-53
2023/07/08 04:38:24;;;;;;;;;;;;;;;19.21;95.90;95541.06;5075697;28;1902;-53
2023/07/08 04:40:51;;;;;;;;;;;;;;;19.47;91.42;95538.41;5075752;28;1044;-54
2023/07/08 04:43:18;;;;;;;;;;;;;;;19.48;95.00;95544.66;5075537;28;1044;-54
2023/07/08 04:45:45;;;;;;;;;;;;;;;19.59;92.74;95544.03;5075754;28;1052;-54
2023/07/08 04:48:14;;;;;;;;;;;;;;;19.78;90.15;95536.97;5075625;28;957;-54
2023/07/08 04:50:41;;;;;;;;;;;;;;;19.87;89.99;95538.44;5075552;28;1181;-53
2023/07/08 04:53:07;;;;;;;;;;;;;;;19.99;88.58;95554.91;5075547;28;1017;-52
2023/07/08 04:55:34;;;;;;;;;;;;;;;20.08;88.72;95548.22;5075385;28;1052;-53
2023/07/08 04:58:01;;;;;;;;;;;;;;;20.05;88.54;95553.25;5075167;28;1906;-53
2023/07/08 05:00:28;;;;;;;;;;;;;;;20.21;89.19;95557.41;5075225;28;1093;-53
2023/07/08 05:02:54;;;;;;;;;;;;;;;20.15;90.38;95548.22;5075256;28;1033;-53
2023/07/08 05:05:20;;;;;;;;;;;;;;;20.19;89.61;95552.19;5075181;28;1212;-53
2023/07/08 05:07:46;;;;;;;;;;;;;;;20.18;91.88;95563.25;5074963;28;1093;-53
2023/07/08 05:10:12;;;;;;;;;;;;;;;20.20;88.04;95558.44;5075056;28;1063;-53
2023/07/08 05:12:38;;;;;;;;;;;;;;;20.41;91.79;95560.94;5075031;28;1064;-53
2023/07/08 05:15:04;;;;;;;;;;;;;;;20.62;87.13;95553.56;5075073;28;1285;-53
2023/07/08 05:17:30;;;;;;;;;;;;;;;20.77;84.20;95548.72;5074941;28;1914;-53
2023/07/08 05:20:00;;;;;;;;;;;;;;;20.97;85.84;95556.78;5074967;28;1041;-53
2023/07/08 05:22:29;;;;;;;;;;;;;;;21.18;84.97;95557.50;5073751;28;968;-53
2023/07/08 05:24:55;;;;;;;;;;;;;;;20.99;84.47;95557.38;5074857;28;1013;-53
2023/07/08 05:27:22;;;;;;;;;;;;;;;20.93;83.43;95562.88;5074780;28;1024;-53
2023/07/08 05:29:48;;;;;;;;;;;;;;;21.30;82.46;95568.53;5075018;28;953;-53
2023/07/08 05:32:14;;;;;;;;;;;;;;;21.50;84.95;95566.56;5074790;28;1016;-53
2023/07/08 05:34:40;;;;;;;;;;;;;;;21.23;78.58;95563.97;5074714;28;1037;-53
2023/07/08 05:37:06;;;;;;;;;;;;;;;21.23;83.42;95568.59;5073617;28;1992;-53
2023/07/08 05:39:32;;;;;;;;;;;;;;;21.26;80.52;95574.41;5074467;28;1876;-53
2023/07/08 05:41:58;;;;;;;;;;;;;;;21.42;85.02;95574.97;5074424;28;1048;-53
2023/07/08 05:44:24;;;;;;;;;;;;;;;21.44;83.23;95575.59;5074427;28;1058;-53
2023/07/08 05:46:50;;;;;;;;;;;;;;;21.55;80.76;95568.59;5073445;28;968;-52
2023/07/08 05:49:16;;;;;;;;;;;;;;;21.77;81.55;95566.38;5074306;28;1505;-52
2023/07/08 05:51:43;;;;;;;;;;;;;;;21.78;84.45;95571.59;5074256;28;1134;-53
2023/07/08 05:54:09;;;;;;;;;;;;;;;21.77;83.85;95574.53;5074274;28;1077;-52
2023/07/08 05:56:35;;;;;;;;;;;;;;;21.87;80.41;95569.41;5074186;28;1905;-53
2023/07/08 05:59:02;;;;;;;;;;;;;;;22.07;82.96;95577.44;5074464;28;1327;-53
2023/07/08 06:01:28;;;;;;;;;;;;;;;22.33;77.82;95573.66;5074096;28;1232;-53
2023/07/08 06:03:57;;;;;;;;;;;;;;;22.64;77.61;95582.78;5074289;28;1040;-53
2023/07/08 06:06:24;;;;;;;;;;;;;;;22.77;81.29;95579.91;5073716;28;1275;-54
2023/07/08 06:08:50;;;;;;;;;;;;;;;22.93;78.27;95583.91;5072910;28;991;-53
2023/07/08 06:11:16;;;;;;;;;;;;;;;23.03;78.48;95588.88;5073892;28;985;-53
2023/07/08 06:13:42;;;;;;;;;;;;;;;23.02;77.12;95594.53;5073899;28;1042;-53
2023/07/08 06:16:08;;;;;;;;;;;;;;;23.12;77.99;95595.66;5073968;28;1036;-53
2023/07/08 06:18:35;;;;;;;;;;;;;;;23.38;76.74;95597.22;5073818;28;1906;-53
2023/07/08 06:21:01;;;;;;;;;;;;;;;23.68;75.06;95592.81;5073866;28;1195;-53
2023/07/08 06:23:27;;;;;;;;;;;;;;;23.90;72.97;95590.41;5073648;28;1168;-53
2023/07/08 06:25:54;;;;;;;;;;;;;;;23.94;71.61;95595.19;5073943;28;1048;-54
2023/07/08 06:28:20;;;;;;;;;;;;;;;24.05;70.89;95603.63;5073869;28;1017;-54
2023/07/08 06:30:46;;;;;;;;;;;;;;;24.18;72.63;95606.13;5073816;28;1063;-54
2023/07/08 06:33:13;;;;;;;;;;;;;;;24.22;72.49;95604.59;5073531;28;1045;-53
2023/07/08 06:35:39;;;;;;;;;;;;;;;24.16;72.79;95598.16;5073517;28;1054;-53
2023/07/08 06:38:06;;;;;;;;;;;;;;;24.24;72.24;95596.16;5073507;28;1910;-54
2023/07/08 06:40:32;;;;;;;;;;;;;;;24.31;70.00;95603.19;5073433;28;1038;-54
2023/07/08 06:42:58;;;;;;;;;;;;;;;24.23;74.08;95592.59;5073669;28;1041;-54
2023/07/08 06:45:24;;;;;;;;;;;;;;;24.41;73.08;95590.81;5073529;28;961;-54
2023/07/08 06:47:50;;;;;;;;;;;;;;;24.50;72.73;95592.13;5073097;28;1053;-53
2023/07/08 06:50:16;;;;;;;;;;;;;;;24.37;72.68;95587.72;5073344;28;1177;-54
2023/07/08 06:52:42;;;;;;;;;;;;;;;24.64;70.91;95590.84;5073479;28;1074;-54
2023/07/08 06:55:09;;;;;;;;;;;;;;;24.67;72.36;95586.81;5073338;28;1088;-54
2023/07/08 06:57:38;;;;;;;;;;;;;;;24.85;71.46;95575.75;5073506;28;1914;-53
2023/07/08 07:03:25;;;;;;;;;;;;;;;24.79;69.48;95579.41;5073262;28;834;-53
2023/07/08 07:05:51;;;;;;;;;;;;;;;24.91;66.36;95576.69;5073344;28;1215;-53
2023/07/08 07:08:17;;;;;;;;;;;;;;;24.83;64.31;95580.59;5073028;28;1116;-53
2023/07/08 07:10:45;;;;;;;;;;;;;;;24.74;66.86;95580.16;5073356;28;1075;-53
2023/07/08 07:13:11;;;;;;;;;;;;;;;24.96;64.98;95573.22;5073253;28;988;-53
2023/07/08 07:15:37;;;;;;;;;;;;;;;24.84;64.12;95584.19;5073194;28;1088;-55
2023/07/08 07:18:03;;;;;;;;;;;;;;;24.97;66.35;95578.44;5072982;28;1910;-54
2023/07/08 07:20:29;;;;;;;;;;;;;;;25.17;66.66;95575.28;5073301;28;1036;-54
2023/07/08 07:22:55;;;;;;;;;;;;;;;25.21;65.06;95575.63;5073336;28;1016;-53
2023/07/08 07:25:21;;;;;;;;;;;;;;;25.17;65.97;95579.94;5073147;28;1052;-53
2023/07/08 07:27:48;;;;;;;;;;;;;;;25.24;56.59;95589.69;5073211;28;965;-53
2023/07/08 07:30:15;;;;;;;;;;;;;;;25.27;54.68;95578.28;5073051;28;1039;-53
2023/07/08 07:32:42;;;;;;;;;;;;;;;25.27;57.31;95582.91;5072912;28;1037;-53
2023/07/08 07:35:14;;;;;;;;;;;;;;;25.23;59.40;95581.72;5072990;28;1136;-53
2023/07/08 07:37:41;;;;;;;;;;;;;;;25.32;57.56;95583.00;5073074;28;1979;-53
2023/07/08 07:40:12;;;;;;;;;;;;;;;25.49;57.23;95585.78;5073120;28;1035;-54
2023/07/08 07:42:39;;;;;;;;;;;;;;;25.46;53.94;95589.00;5073066;28;1055;-54
2023/07/08 07:45:05;;;;;;;;;;;;;;;25.52;55.70;95588.88;5072843;28;980;-53
2023/07/08 07:47:31;;;;;;;;;;;;;;;25.56;53.06;95600.19;5073001;28;997;-54
2023/07/08 07:49:58;;;;;;;;;;;;;;;25.60;55.38;95600.53;5072992;28;965;-54
2023/07/08 07:52:25;;;;;;;;;;;;;;;25.58;54.93;95600.75;5072716;28;1217;-54
2023/07/08 07:54:51;;;;;;;;;;;;;;;25.51;57.43;95594.59;5072751;28;968;-53
2023/07/08 07:57:17;;;;;;;;;;;;;;;25.50;54.81;95603.91;5072532;28;1910;-53
2023/07/08 07:59:43;;;;;;;;;;;;;;;25.60;54.65;95603.25;5072669;28;969;-53
2023/07/08 08:02:11;;;;;;;;;;;;;;;25.73;56.22;95600.22;5076647;28;1051;-53
2023/07/08 08:04:37;;;;;;;;;;;;;;;25.94;55.69;95597.88;5076505;28;1035;-54
2023/07/08 08:07:03;;;;;;;;;;;;;;;25.86;53.00;95601.81;5076239;28;1247;-54
2023/07/08 08:09:29;;;;;;;;;;;;;;;25.82;52.41;95604.22;5075177;28;1052;-54
2023/07/08 08:11:56;;;;;;;;;;;;;;;25.96;53.31;95585.59;5076347;28;1134;-55
2023/07/08 08:14:22;;;;;;;;;;;;;;;26.12;52.97;95585.84;5076157;28;1013;-54
2023/07/08 08:27:56;;;;;;;;;;;;;;;26.36;54.40;95589.25;5111369;27;1269;-53
2023/07/08 08:30:22;;;;;;;;;;;;;;;26.36;54.12;95581.03;5111145;28;1075;-53
2023/07/08 08:32:48;;;;;;;;;;;;;;;26.33;51.94;95581.53;5111001;28;1533;-52
2023/07/08 08:35:15;;;;;;;;;;;;;;;26.29;50.87;95590.28;5111022;28;1909;-53
2023/07/08 08:37:41;;;;;;;;;;;;;;;26.26;50.76;95582.53;5111078;28;1897;-52
2023/07/08 08:40:12;;;;;;;;;;;;;;;26.38;51.25;95579.69;5111017;28;1969;-53
2023/07/08 08:42:43;;;;;;;;;;;;;;;26.44;51.06;95577.88;5111065;28;1024;-53
2023/07/08 08:45:14;;;;;;;;;;;;;;;26.45;52.43;95571.31;5110873;28;1084;-53
2023/07/08 08:47:45;;;;;;;;;;;;;;;26.53;50.43;95570.88;5110855;28;1036;-53
2023/07/08 08:50:29;;;;;;;;;;;;;;;26.57;52.22;95565.72;5110857;28;1632;-53
2023/07/08 08:52:56;;;;;;;;;;;;;;;26.61;49.96;95565.00;5109193;28;1310;-53
2023/07/08 08:55:26;;;;;;;;;;;;;;;26.48;54.42;95562.56;5110627;28;1975;-54
2023/07/08 08:57:57;;;;;;;;;;;;;;;26.63;53.55;95551.84;5110586;28;976;-55
2023/07/08 09:00:27;;;;;;;;;;;;;;;26.62;51.12;95565.84;5110567;28;1029;-55
2023/07/08 09:02:59;;;;;;;;;;;;;;;26.49;52.00;95562.31;5110688;28;1048;-54
2023/07/08 09:05:25;;;;;;;;;;;;;;;26.55;51.39;95555.00;5110375;28;1041;-54
2023/07/08 09:07:51;;;;;;;;;;;;;;;26.42;52.87;95556.19;5110364;28;1096;-54
2023/07/08 09:10:36;;;;;;;;;;;;;;;26.31;51.90;95554.38;5110153;28;1048;-54
2023/07/08 09:13:04;;;;;;;;;;;;;;;26.55;51.63;95555.00;5110471;28;1048;-54
2023/07/08 09:15:30;;;;;;;;;;;;;;;26.70;50.42;95565.41;5110238;28;1977;-53
2023/07/08 09:18:01;;;;;;;;;;;;;;;26.86;50.65;95560.94;5110329;28;1194;-54
2023/07/08 09:20:28;;;;;;;;;;;;;;;27.01;50.85;95566.63;5110202;28;968;-54
2023/07/08 09:23:10;;;;;;;;;;;;;;;26.92;49.23;95559.94;5110079;28;969;-54
2023/07/08 09:26:03;;;;;;;;;;;;;;;27.22;51.77;95558.66;5109751;28;1264;-55
2023/07/08 09:28:39;;;;;;;;;;;;;;;26.86;49.19;95555.44;5096208;28;1233;-54
2023/07/08 09:31:06;;;;;;;;;;;;;;;26.70;50.29;95556.34;5096432;28;1040;-54
2023/07/08 09:33:34;;;;;;;;;;;;;;;26.71;49.62;95553.31;5096190;28;1087;-54
2023/07/08 09:36:00;;;;;;;;;;;;;;;26.66;54.03;95551.34;5096172;28;1902;-54
2023/07/08 09:38:26;;;;;;;;;;;;;;;26.88;48.03;95558.78;5096358;28;1059;-55
2023/07/08 09:40:55;;;;;;;;;;;;;;;26.63;52.64;95557.34;5096172;28;1045;-53
2023/07/08 09:43:26;;;;;;;;;;;;;;;26.85;52.86;95551.06;5096045;28;1083;-52
2023/07/08 09:45:57;;;;;;;;;;;;;;;26.85;53.38;95557.38;5096068;28;999;-52
2023/07/08 09:48:27;;;;;;;;;;;;;;;26.53;50.94;95550.88;5095925;28;1104;-52
2023/07/08 09:50:54;;;;;;;;;;;;;;;26.74;48.91;95561.06;5096240;28;1020;-52
2023/07/08 09:53:20;;;;;;;;;;;;;;;26.76;50.74;95555.31;5096016;28;962;-53
2023/07/08 09:55:47;;;;;;;;;;;;;;;26.26;48.96;95552.38;5095972;28;1979;-53
2023/07/08 09:58:18;;;;;;;;;;;;;;;25.95;51.61;95550.22;5095856;28;1061;-52
2023/07/08 10:00:49;;;;;;;;;;;;;;;26.43;51.55;95557.84;5095880;28;1023;-52
2023/07/08 10:03:19;;;;;;;;;;;;;;;26.90;50.96;95555.78;5096036;28;1058;-53
2023/07/08 10:05:46;;;;;;;;;;;;;;;26.80;53.86;95543.59;5096013;28;972;-53
2023/07/08 10:08:17;;;;;;;;;;;;;;;26.40;51.19;95539.16;5095789;28;1055;-53
2023/07/08 10:10:44;;;;;;;;;;;;;;;26.16;51.53;95541.28;5095780;28;1091;-52
2023/07/08 10:13:29;;;;;;;;;;;;;;;26.02;54.16;95539.94;5095481;28;1031;-53
2023/07/08 10:15:56;;;;;;;;;;;;;;;26.03;51.91;95544.34;5095575;28;1993;-52
2023/07/08 10:18:29;;;;;;;;;;;;;;;26.49;52.16;95548.63;5095485;28;1849;-53
2023/07/08 10:21:18;;;;;;;;;;;;;;;26.92;50.86;95548.13;5095486;28;1040;-53
2023/07/08 10:24:02;;;;;;;;;;;;;;;26.59;48.96;95541.63;5066597;28;1305;-53
2023/07/08 10:26:30;;;;;;;;;;;;;;;26.17;51.68;95531.13;5092724;28;1501;-52
2023/07/08 10:29:15;;;;;;;;;;;;;;;26.20;52.93;95525.13;5095387;28;1003;-53
2023/07/08 10:32:03;;;;;;;;;;;;;;;26.00;51.57;95522.91;5095229;28;1955;-53
2023/07/08 10:34:29;;;;;;;;;;;;;;;26.05;54.89;95518.34;5095189;28;1040;-52
2023/07/08 10:37:07;;;;;;;;;;;;;;;25.80;52.77;95516.00;5095279;28;2016;-52
2023/07/08 10:39:39;;;;;;;;;;;;;;;25.88;54.19;95512.84;5094183;28;1043;-53
2023/07/08 10:42:16;;;;;;;;;;;;;;;26.19;52.60;95518.84;5095238;28;960;-53
2023/07/08 10:45:02;;;;;;;;;;;;;;;26.02;51.31;95518.03;5095250;28;1293;-53
2023/07/08 10:47:34;;;;;;;;;;;;;;;26.38;50.40;95519.38;5094897;28;1064;-53
2023/07/08 10:50:15;;;;;;;;;;;;;;;26.72;49.39;95529.50;5094967;28;1043;-52
2023/07/08 10:52:51;;;;;;;;;;;;;;;26.64;49.76;95531.59;5094927;28;988;-52
2023/07/08 10:55:26;;;;;;;;;;;;;;;26.54;49.08;95527.84;5094954;28;1910;-53
2023/07/08 10:58:18;;;;;;;;;;;;;;;26.79;51.26;95511.75;5094899;28;1064;-53
2023/07/08 11:00:44;;;;;;;;;;;;;;;26.93;49.12;95511.38;5071165;28;1203;-53
2023/07/08 11:03:19;;;;;;;;;;;;;;;26.94;48.12;95507.53;5094496;28;985;-54
2023/07/08 11:05:46;;;;;;;;;;;;;;;27.11;49.76;95508.31;5094823;28;1039;-53
2023/07/08 11:08:31;;;;;;;;;;;;;;;27.13;47.98;95508.88;5094426;28;1036;-53
2023/07/08 11:11:03;;;;;;;;;;;;;;;27.21;48.13;95516.66;5094344;28;1470;-52
2023/07/08 11:13:31;;;;;;;;;;;;;;;27.37;49.34;95505.88;5094153;28;1490;-53
2023/07/08 11:16:01;;;;;;;;;;;;;;;27.30;52.53;95506.09;5094346;28;1917;-53
2023/07/08 11:18:30;;;;;;;;;;;;;;;27.38;49.20;95508.38;5094293;28;1112;-53
2023/07/08 11:21:01;;;;;;;;;;;;;;;27.40;47.37;95502.63;5094373;28;980;-53
2023/07/08 11:23:45;;;;;;;;;;;;;;;27.26;48.84;95507.66;5094346;28;972;-52
2023/07/08 11:26:16;;;;;;;;;;;;;;;27.23;50.25;95494.44;5093852;28;1430;-52
2023/07/08 11:28:42;;;;;;;;;;;;;;;27.33;49.45;95499.25;5094228;28;1614;-52
2023/07/08 11:31:08;;;;;;;;;;;;;;;27.36;49.54;95505.03;5094122;28;1040;-52
2023/07/08 11:33:35;;;;;;;;;;;;;;;27.42;47.41;95506.75;5094009;28;1883;-52
2023/07/08 11:36:03;;;;;;;;;;;;;;;27.33;46.86;95502.00;5094102;28;2004;-52
2023/07/08 11:38:31;;;;;;;;;;;;;;;27.37;49.88;95492.97;5093887;28;1036;-52
2023/07/08 11:41:00;;;;;;;;;;;;;;;27.34;49.90;95499.00;5093885;28;1104;-53
2023/07/08 11:43:27;;;;;;;;;;;;;;;27.22;49.07;95495.53;5093836;28;1072;-53
2023/07/08 11:45:55;;;;;;;;;;;;;;;27.39;46.16;95495.44;5093889;28;1029;-52
2023/07/08 11:48:24;;;;;;;;;;;;;;;27.50;46.20;95474.44;5093881;28;1031;-53
2023/07/08 11:50:51;;;;;;;;;;;;;;;27.51;49.10;95470.56;5093727;28;978;-53
2023/07/08 11:53:34;;;;;;;;;;;;;;;27.40;48.29;95467.75;5093720;28;1081;-53
2023/07/08 11:56:04;;;;;;;;;;;;;;;27.52;46.54;95464.81;5093983;28;1929;-53
2023/07/08 11:58:32;;;;;;;;;;;;;;;27.72;47.86;95460.63;5093750;28;1020;-53
2023/07/08 12:01:24;;;;;;;;;;;;;;;27.67;46.21;95461.41;5093676;28;1024;-53
2023/07/08 12:03:54;;;;;;;;;;;;;;;27.58;47.31;95458.28;5070264;28;1100;-53
2023/07/08 12:06:26;;;;;;;;;;;;;;;27.62;46.33;95464.09;5093842;28;1027;-53
2023/07/08 12:08:53;;;;;;;;;;;;;;;27.47;49.92;95456.56;5093721;28;977;-52
2023/07/08 12:11:24;;;;;;;;;;;;;;;27.51;47.31;95457.69;5093660;28;964;-53
2023/07/08 12:13:50;;;;;;;;;;;;;;;27.35;47.05;95464.94;5093616;28;1083;-53
2023/07/08 12:16:16;;;;;;;;;;;;;;;27.26;45.76;95466.50;5093407;28;1913;-52
2023/07/08 12:18:45;;;;;;;;;;;;;;;27.20;44.26;95473.00;5093460;28;1048;-52
2023/07/08 12:21:13;;;;;;;;;;;;;;;26.84;48.13;95451.50;5093682;28;973;-52
2023/07/08 12:23:44;;;;;;;;;;;;;;;27.01;50.19;95458.78;5093602;28;1024;-52
2023/07/08 12:26:10;;;;;;;;;;;;;;;27.24;48.21;95469.50;5093107;28;1605;-52
2023/07/08 12:28:40;;;;;;;;;;;;;;;27.35;46.83;95473.19;5093433;28;1004;-53
2023/07/08 12:31:17;;;;;;;;;;;;;;;27.40;46.12;95480.66;5093376;28;1110;-52
2023/07/08 12:33:44;;;;;;;;;;;;;;;27.38;45.44;95489.16;5093381;28;1041;-52
2023/07/08 12:36:13;;;;;;;;;;;;;;;27.48;46.93;95480.16;5093311;28;2001;-52
2023/07/08 12:38:41;;;;;;;;;;;;;;;27.40;48.63;95470.50;5093391;28;1048;-52
2023/07/08 12:41:11;;;;;;;;;;;;;;;27.41;48.15;95485.88;5093221;28;1087;-53
2023/07/08 12:43:38;;;;;;;;;;;;;;;27.58;48.54;95479.44;5093198;28;1037;-52
2023/07/08 12:46:04;;;;;;;;;;;;;;;27.21;47.88;95480.16;5093473;28;1019;-52
2023/07/08 12:48:34;;;;;;;;;;;;;;;27.08;46.08;95495.91;5093317;28;1028;-52
2023/07/08 12:51:00;;;;;;;;;;;;;;;27.17;47.71;95487.25;5093350;28;1028;-52
2023/07/08 12:53:26;;;;;;;;;;;;;;;27.29;45.93;95479.72;5093132;28;1041;-52
2023/07/08 12:55:54;;;;;;;;;;;;;;;27.27;45.15;95479.97;5093201;28;1917;-52
2023/07/08 12:58:28;;;;;;;;;;;;;;;27.32;45.68;95476.47;5093040;28;1341;-52
2023/07/08 13:00:55;;;;;;;;;;;;;;;27.28;45.60;95480.81;5093303;28;964;-52
2023/07/08 13:03:23;;;;;;;;;;;;;;;27.21;46.91;95466.44;5095098;28;1032;-52
2023/07/08 13:05:50;;;;;;;;;;;;;;;27.29;48.66;95465.16;5096839;28;1103;-53
2023/07/08 13:08:18;;;;;;;;;;;;;;;27.22;46.28;95474.41;5096889;28;992;-52
2023/07/08 13:10:44;;;;;;;;;;;;;;;26.87;44.62;95474.81;5096740;28;1057;-52
2023/07/08 13:13:36;;;;;;;;;;;;;;;26.91;46.23;95470.47;5096675;28;1061;-52
2023/07/08 13:16:03;;;;;;;;;;;;;;;27.02;45.05;95466.78;5073077;28;1999;-52